Overview Statistics Trail Chart Weather Telemetry Raw packets
 

This is the latest recevied weather packets stored in our database for station/object ED1ZAI-13. If no packets are shown the sender has not sent any weather packets the latest 10 day(s).

<< 2 3 4 5 6 7 8 >>
Time Temp. Humidity Pressure Rain* Wind** Luminosity Snow
1788571185 23.89° C 29% 1024.3 hPa - - - -
1788570585 23.89° C 29% 1024.3 hPa - - - -
1788569985 22.78° C 31% 1024.4 hPa - - - -
1788569384 22.78° C 31% 1024.5 hPa - - - -
1788568784 23.33° C 30% 1024.5 hPa - - - -
1788568184 23.89° C 29% 1024.5 hPa - - - -
1788567586 23.33° C 30% 1024.4 hPa - - - -
1788566985 22.78° C 32% 1024.4 hPa - - - -
1788566385 23.33° C 31% 1024.5 hPa - - - -
1788565674 22.78° C 31% 1024.6 hPa - - - -
1788565045 23.33° C 31% 1024.7 hPa - - - -
1788564444 23.33° C 30% 1024.7 hPa - - - -
1788563844 23.33° C 30% 1024.8 hPa - - - -
1788563244 24.44° C 28% 1024.7 hPa - - - -
1788562643 25° C 27% 1024.6 hPa - - - -
1788562043 25° C 27% 1024.5 hPa - - - -
1788561445 25.56° C 27% 1024.4 hPa - - - -
1788560844 25° C 26% 1024.4 hPa - - - -
1788560263 25° C 28% 1024.6 hPa - - - -
1788559644 25° C 27% 1024.5 hPa - - - -
1788555444 27.22° C 22% 1024.6 hPa - - - -
1788554844 27.78° C 21% 1024.5 hPa - - - -
1788554244 28.33° C 20% 1024.4 hPa - - - -
1788553643 28.33° C 19% 1024.4 hPa - - - -
1788553062 29.44° C 18% 1024.2 hPa - - - -

* Rain since midnight (hover to see other rain measurements)
** Current wind speed in m/s (hover to see current wind gust speed)